Tuckerman, Arkansas
Current Conditions -  °F | °C
As of 3:56 PM on Monday 22 Dec 2014 (Local Time) from KM19 Reporting Station
Light Rain Light Rain  
Wind Chill: 12°   Ceiling: 1100
Heat Index: 12°   Visibility: 6mi
Dew Point: 12°   Wind: 10mph
Humidity: 100%   Direction: 180°S
Pressure: 29.6"   Gusts: NA
Location:  35.73°N, 91.2°W
Report Text: KM19 222156Z AUTO 18009KT 6SM -RA BR OVC011 12/12 A2960 RMK AO2 T01160116 RAB53 P0000 SLP021
Loading
Personal Weather Stations






























Interactive Weather Map New forecast layout! Learn more

10-Day Weather Forecast

Advertisements
Track Severe Weather on mobile